createdAt,value
2022-10-21T05:31:12.501Z,4.78
2022-10-21T05:33:39.630Z,4.35
2022-10-21T05:36:08.658Z,5.28
2022-10-21T05:38:35.883Z,5.20
2022-10-21T05:41:03.540Z,5.90
2022-10-21T05:43:30.902Z,5.38
2022-10-21T05:45:58.365Z,5.28
2022-10-21T05:48:25.868Z,5.82
2022-10-21T05:50:55.046Z,4.85
2022-10-21T05:53:24.090Z,5.68
2022-10-21T05:56:02.117Z,5.00
2022-10-21T05:58:34.511Z,5.32
2022-10-21T06:01:02.952Z,6.15
2022-10-21T06:03:36.190Z,7.07
2022-10-21T06:06:06.890Z,6.80
2022-10-21T06:08:36.494Z,5.43
2022-10-21T06:11:08.263Z,6.68
2022-10-21T06:13:39.961Z,7.93
2022-10-21T06:16:09.600Z,6.57
2022-10-21T06:18:37.560Z,6.18
2022-10-21T06:21:06.207Z,6.82
2022-10-21T06:23:34.865Z,8.45
2022-10-21T06:26:06.129Z,6.60
2022-10-21T06:28:37.348Z,7.50
2022-10-21T06:31:06.150Z,7.65
2022-10-21T06:33:35.557Z,6.70
2022-10-21T06:36:03.760Z,7.07
2022-10-21T06:38:33.566Z,6.95
2022-10-21T06:41:09.206Z,7.55
2022-10-21T06:43:42.189Z,5.30
2022-10-21T06:46:12.591Z,5.68
2022-10-21T06:48:40.097Z,5.03
2022-10-21T06:51:10.793Z,5.40
2022-10-21T06:53:39.367Z,4.50
2022-10-21T06:56:09.905Z,3.42
2022-10-21T06:58:38.792Z,4.97
2022-10-21T07:01:16.517Z,3.47
2022-10-21T07:03:55.684Z,4.95
2022-10-21T07:06:23.734Z,3.85
2022-10-21T07:08:57.810Z,3.70
2022-10-21T07:11:28.898Z,3.47
2022-10-21T07:13:57.311Z,3.58
2022-10-21T07:16:28.251Z,3.33
2022-10-21T07:18:56.058Z,3.22
2022-10-21T07:21:25.388Z,2.70
2022-10-21T07:23:54.047Z,3.28
2022-10-21T07:26:24.701Z,3.38
2022-10-21T07:28:52.489Z,3.22
2022-10-21T07:31:21.712Z,4.43
2022-10-21T07:33:50.023Z,6.40
2022-10-21T07:36:21.261Z,4.90
2022-10-21T07:38:49.996Z,4.95
2022-10-21T07:41:21.910Z,4.60
2022-10-21T07:43:50.136Z,4.03
2022-10-21T07:46:19.770Z,4.40
2022-10-21T07:48:50.234Z,6.05
2022-10-21T07:51:25.732Z,4.00
2022-10-21T07:53:59.932Z,4.57
2022-10-21T07:56:30.975Z,5.35
2022-10-21T07:59:13.434Z,4.53
2022-10-21T08:01:45.200Z,4.57
2022-10-21T08:04:16.175Z,6.05
2022-10-21T08:06:56.794Z,4.68
2022-10-21T08:09:32.092Z,3.20
2022-10-21T08:12:00.844Z,3.80
2022-10-21T08:14:29.019Z,4.25
2022-10-21T08:16:58.013Z,4.22
2022-10-21T08:19:29.883Z,4.72
2022-10-21T08:22:00.681Z,5.13
2022-10-21T08:24:29.025Z,4.70
2022-10-21T08:26:56.804Z,5.25
2022-10-21T08:29:24.558Z,5.85
2022-10-21T08:31:52.294Z,5.25
2022-10-21T08:34:19.873Z,5.40
2022-10-21T08:36:47.476Z,5.25
2022-10-21T08:39:19.190Z,7.78
2022-10-21T08:42:12.037Z,6.35
2022-10-21T08:44:49.739Z,5.90
2022-10-21T08:47:37.595Z,5.93
2022-10-21T08:50:23.562Z,6.43
2022-10-21T08:53:06.247Z,7.75
2022-10-21T08:55:36.791Z,4.32
2022-10-21T08:58:05.307Z,4.03
2022-10-21T09:00:38.507Z,4.43
2022-10-21T09:03:32.539Z,4.07
2022-10-21T09:06:38.039Z,3.53
2022-10-21T09:09:24.894Z,5.03
2022-10-21T09:15:21.130Z,2.13
2022-10-21T09:21:03.161Z,1.85
2022-10-21T09:23:58.482Z,2.10
2022-10-21T09:26:44.673Z,2.42
2022-10-21T09:29:33.515Z,3.42
2022-10-21T09:38:40.776Z,10.02
2022-10-21T09:41:16.574Z,4.93
2022-10-21T09:43:44.914Z,2.70
2022-10-21T09:46:13.989Z,1.70
2022-10-21T09:49:22.931Z,1.88
2022-10-21T09:51:37.970Z,2.67
2022-10-21T09:54:10.437Z,2.55
2022-10-21T09:57:00.632Z,2.35
2022-10-21T09:59:32.895Z,2.25
2022-10-21T10:02:15.627Z,1.70
2022-10-21T10:04:43.472Z,2.20
2022-10-21T10:07:32.784Z,1.85
2022-10-21T10:10:00.883Z,1.98
2022-10-21T10:12:29.690Z,3.22
2022-10-21T10:15:02.952Z,3.75
2022-10-21T10:17:35.410Z,2.78
2022-10-21T10:20:12.750Z,2.25
2022-10-21T10:22:43.993Z,2.88
2022-10-21T10:30:50.715Z,3.20
2022-10-21T10:33:31.471Z,3.13
2022-10-21T10:36:05.541Z,2.70
2022-10-21T10:38:39.087Z,2.80
2022-10-21T10:41:12.612Z,2.38
2022-10-21T10:43:52.381Z,3.20
2022-10-21T10:49:19.403Z,2.53
2022-10-21T10:51:49.407Z,1.42
2022-10-21T10:54:28.327Z,1.20
2022-10-21T11:00:14.216Z,2.08
2022-10-21T11:03:03.107Z,2.33
2022-10-21T11:05:42.759Z,3.38
2022-10-21T11:08:17.797Z,2.92
2022-10-21T11:10:50.518Z,2.67
2022-10-21T11:13:21.771Z,1.83
2022-10-21T11:16:19.400Z,1.52
2022-10-21T11:19:19.092Z,1.20
2022-10-21T11:21:50.646Z,1.05
2022-10-21T11:24:47.231Z,1.15
2022-10-21T11:27:39.484Z,1.30
2022-10-21T11:30:19.859Z,1.13
2022-10-21T11:33:04.643Z,1.13
2022-10-21T11:35:58.894Z,1.65
2022-10-21T11:38:51.586Z,1.50
2022-10-21T11:41:28.238Z,7.57
2022-10-21T11:44:21.355Z,1.35
2022-10-21T11:47:16.661Z,1.17
2022-10-21T11:53:11.779Z,1.27
2022-10-21T11:56:02.469Z,0.82
2022-10-21T11:58:50.872Z,1.33
2022-10-21T12:01:37.024Z,1.50
2022-10-21T12:07:24.502Z,1.00
2022-10-21T12:10:15.407Z,0.75
2022-10-21T12:12:47.608Z,0.90
2022-10-21T12:15:23.139Z,1.00
2022-10-21T12:17:51.259Z,0.63
2022-10-21T12:20:24.151Z,0.60
2022-10-21T12:22:58.727Z,0.50
2022-10-21T12:25:39.531Z,0.60
2022-10-21T12:28:32.784Z,0.60
2022-10-21T12:31:39.482Z,1.33
2022-10-21T12:34:10.940Z,0.43
2022-10-21T12:36:45.881Z,1.60
2022-10-21T12:39:36.709Z,0.60
2022-10-21T12:44:50.787Z,1.00
2022-10-21T12:47:31.010Z,0.47
2022-10-21T12:50:22.742Z,1.00
2022-10-21T12:53:07.266Z,0.82
2022-10-21T12:55:40.916Z,0.60
2022-10-21T12:58:27.932Z,0.60
2022-10-21T13:00:58.412Z,0.80
2022-10-21T13:03:48.116Z,0.80
2022-10-21T13:06:15.716Z,1.20
2022-10-21T13:11:38.766Z,0.80
2022-10-21T13:14:33.643Z,0.50
2022-10-21T13:17:26.256Z,1.10
2022-10-21T13:20:15.390Z,1.00
2022-10-21T13:22:45.169Z,0.65
2022-10-21T13:25:25.606Z,1.98
2022-10-21T13:28:22.264Z,1.20
2022-10-21T13:33:30.315Z,1.10
2022-10-21T13:36:03.623Z,0.80
2022-10-21T13:38:34.203Z,1.10
2022-10-21T13:41:18.214Z,1.02
2022-10-21T13:43:51.080Z,1.10
2022-10-21T13:46:24.065Z,1.38
2022-10-21T13:51:26.136Z,0.80
2022-10-21T13:53:57.791Z,0.77
2022-10-21T13:56:31.264Z,0.50
2022-10-21T13:59:00.480Z,0.70
2022-10-21T14:01:31.072Z,0.85
2022-10-21T14:04:17.544Z,1.50
2022-10-21T14:06:50.833Z,0.77
2022-10-21T14:09:42.022Z,0.82
2022-10-21T14:12:21.843Z,0.73
2022-10-21T14:14:51.164Z,0.30
2022-10-21T14:17:22.323Z,0.80
2022-10-21T14:19:53.931Z,1.13
2022-10-21T14:22:24.885Z,0.75
2022-10-21T14:24:57.490Z,0.80
2022-10-21T14:27:28.153Z,0.75
2022-10-21T14:29:57.107Z,0.70
2022-10-21T14:32:26.596Z,1.00
2022-10-21T14:37:43.457Z,1.15
2022-10-21T14:40:21.777Z,0.80
2022-10-21T14:42:53.177Z,1.42
2022-10-21T14:45:27.420Z,1.48
2022-10-21T14:48:20.407Z,1.48
2022-10-21T14:50:53.885Z,0.82
2022-10-21T14:53:23.880Z,1.00
2022-10-21T14:55:57.071Z,0.80
2022-10-21T14:58:30.949Z,0.68
2022-10-21T15:01:01.301Z,0.80
2022-10-21T15:03:47.282Z,0.52
2022-10-21T15:06:17.718Z,0.77
2022-10-21T15:09:14.824Z,0.40
2022-10-21T15:11:44.395Z,0.98
2022-10-21T15:16:56.703Z,0.85
2022-10-21T15:19:30.118Z,0.50
2022-10-21T15:22:01.601Z,0.65
2022-10-21T15:27:05.685Z,0.50
2022-10-21T15:29:45.416Z,0.43
2022-10-21T15:32:19.024Z,0.52
2022-10-21T15:34:50.136Z,0.70
2022-10-21T15:37:17.694Z,0.90
2022-10-21T15:39:45.614Z,0.93
2022-10-21T15:42:16.424Z,0.90
2022-10-21T15:44:48.314Z,0.40
2022-10-21T15:47:15.987Z,0.55
2022-10-21T15:49:46.018Z,1.30
2022-10-21T15:52:14.345Z,0.52
2022-10-21T15:54:42.086Z,0.88
2022-10-21T15:57:19.651Z,0.85
2022-10-21T15:59:47.978Z,1.23
